Time;durP1;ratioP1;P1;durP2;ratioP2;P2;SDS_P1;SDS_P2;PMS_P1;PMS_P2;Temp;Humidity;BMP_temperature;BMP_pressure;BME280_temperature;BME280_humidity;BME280_pressure;Samples;Min_cycle;Max_cycle;Signal;HPM_P1;HPM_P2
2024/04/14 00:00:15;;;;;;;1.52;1.42;;;;;;;-139.19;100.00;56970.53;5491237;26;20005;-66
2024/04/14 00:02:40;;;;;;;0.32;0.32;;;;;;;-139.19;100.00;56970.53;5491238;26;19994;-66
2024/04/14 00:05:06;;;;;;;0.55;0.38;;;;;;;-139.19;100.00;56970.53;5491062;26;20010;-66
2024/04/14 00:07:31;;;;;;;0.75;0.75;;;;;;;-139.19;100.00;56970.53;5491686;26;20330;-66
2024/04/14 00:09:57;;;;;;;0.30;0.30;;;;;;;-139.19;100.00;56970.53;5491046;26;20010;-66
2024/04/14 00:12:22;;;;;;;0.50;0.50;;;;;;;-139.19;100.00;56970.53;5491056;26;19994;-66
2024/04/14 00:14:47;;;;;;;0.17;0.17;;;;;;;-139.19;100.00;56970.53;5490956;26;19998;-66
2024/04/14 00:17:13;;;;;;;0.47;0.47;;;;;;;-139.19;100.00;56970.53;5490906;26;20029;-66
2024/04/14 00:19:38;;;;;;;1.00;0.50;;;;;;;-139.19;100.00;56970.53;5491059;26;20012;-66
2024/04/14 00:22:03;;;;;;;0.25;0.25;;;;;;;-139.19;100.00;56970.53;5491592;26;20124;-66
2024/04/14 00:24:29;;;;;;;0.40;0.40;;;;;;;-139.19;100.00;56970.53;5491003;26;20002;-66
2024/04/14 00:26:54;;;;;;;1.40;0.77;;;;;;;-139.19;100.00;56970.53;5520824;26;19997;-65
2024/04/14 00:29:19;;;;;;;0.40;0.40;;;;;;;-139.19;100.00;56970.53;5526565;26;20001;-66
2024/04/14 00:31:45;;;;;;;0.77;0.77;;;;;;;-139.19;100.00;56970.53;5526714;26;20008;-66
2024/04/14 00:34:10;;;;;;;1.25;0.95;;;;;;;-139.19;100.00;56970.53;5526048;26;20001;-65
2024/04/14 00:36:36;;;;;;;0.20;0.15;;;;;;;-139.19;100.00;56970.53;5526558;26;20001;-66
2024/04/14 00:39:01;;;;;;;0.40;0.40;;;;;;;-139.19;100.00;56970.53;5501312;26;20002;-66
2024/04/14 00:41:26;;;;;;;0.52;0.52;;;;;;;-139.19;100.00;56970.53;5490459;26;19998;-65
2024/04/14 00:43:52;;;;;;;0.47;0.47;;;;;;;-139.19;100.00;56970.53;5491525;26;20503;-66
2024/04/14 00:46:17;;;;;;;0.32;0.10;;;;;;;-139.19;100.00;56970.53;5491335;26;19997;-65
2024/04/14 00:48:43;;;;;;;1.23;0.77;;;;;;;-139.19;100.00;56970.53;5490401;26;20510;-66
2024/04/14 00:51:09;;;;;;;1.20;0.47;;;;;;;-139.19;100.00;56970.53;5490432;26;19998;-66
2024/04/14 00:53:35;;;;;;;0.20;0.20;;;;;;;-139.19;100.00;56970.53;5489048;26;20328;-67
2024/04/14 00:56:01;;;;;;;0.30;0.30;;;;;;;-139.19;100.00;56970.53;5490037;26;20009;-66
2024/04/14 00:58:27;;;;;;;0.28;0.28;;;;;;;-139.19;100.00;56970.53;5490576;26;20423;-66
2024/04/14 01:00:52;;;;;;;1.55;1.33;;;;;;;-139.19;100.00;56970.53;5522793;26;20073;-66
2024/04/14 01:03:18;;;;;;;0.60;0.52;;;;;;;-139.19;100.00;56970.53;5526135;26;20359;-66
2024/04/14 01:05:43;;;;;;;1.98;1.08;;;;;;;-139.19;100.00;56970.53;5524879;26;20449;-66
2024/04/14 01:08:11;;;;;;;1.65;1.23;;;;;;;-139.19;100.00;56970.53;5525660;26;19997;-66
2024/04/14 01:10:38;;;;;;;0.20;0.20;;;;;;;-139.19;100.00;56970.53;5526016;26;19998;-66
2024/04/14 01:13:03;;;;;;;0.30;0.30;;;;;;;-139.19;100.00;56970.53;5525494;26;20418;-65
2024/04/14 01:15:28;;;;;;;0.38;0.20;;;;;;;-139.19;100.00;56970.53;5525911;26;20006;-65
2024/04/14 01:17:54;;;;;;;0.17;0.17;;;;;;;-139.19;100.00;56970.53;5513469;26;19994;-66
2024/04/14 01:20:19;;;;;;;0.75;0.75;;;;;;;-139.19;100.00;56970.53;5490135;26;20009;-66
2024/04/14 01:22:45;;;;;;;0.10;0.10;;;;;;;-139.19;100.00;56970.53;5490092;26;20002;-66
2024/04/14 01:25:11;;;;;;;0.10;0.10;;;;;;;-139.19;100.00;56970.53;5503840;26;20001;-66
2024/04/14 01:27:37;;;;;;;0.80;0.55;;;;;;;-139.19;100.00;56970.53;5525834;26;20009;-65
2024/04/14 01:30:06;;;;;;;1.42;1.30;;;;;;;-139.19;100.00;56970.53;5526439;26;20069;-66
2024/04/14 01:32:35;;;;;;;0.05;0.05;;;;;;;-139.19;100.00;56970.53;5522942;26;19997;-65
2024/04/14 01:35:01;;;;;;;0.15;0.15;;;;;;;-139.19;100.00;56970.53;5525719;26;19998;-66
2024/04/14 01:37:26;;;;;;;0.28;0.28;;;;;;;-139.19;100.00;56970.53;5525485;26;20008;-66
2024/04/14 01:39:52;;;;;;;1.20;0.88;;;;;;;-139.19;100.00;56970.53;5525053;26;19993;-66
2024/04/14 01:42:17;;;;;;;0.10;0.10;;;;;;;-139.19;100.00;56970.53;5525414;26;20386;-65
2024/04/14 01:44:42;;;;;;;2.72;1.00;;;;;;;-139.19;100.00;56970.53;5523688;26;20002;-66
2024/04/14 01:47:08;;;;;;;0.30;0.30;;;;;;;-139.19;100.00;56970.53;5524852;26;20321;-65
2024/04/14 01:49:34;;;;;;;0.30;0.30;;;;;;;-139.19;100.00;56970.53;5525695;26;20012;-66
2024/04/14 01:51:59;;;;;;;0.30;0.30;;;;;;;-139.19;100.00;56970.53;5525419;26;20001;-66
2024/04/14 01:54:25;;;;;;;1.05;0.82;;;;;;;-139.19;100.00;56970.53;5522178;26;19998;-65
2024/04/14 01:56:50;;;;;;;0.60;0.50;;;;;;;-139.19;100.00;56970.53;5489354;26;20016;-66
2024/04/14 01:59:15;;;;;;;0.43;0.43;;;;;;;-139.19;100.00;56970.53;5489144;26;20009;-66
2024/04/14 02:01:41;;;;;;;0.35;0.35;;;;;;;-139.19;100.00;56970.53;5508428;26;20041;-66
2024/04/14 02:04:06;;;;;;;0.10;0.10;;;;;;;-139.19;100.00;56970.53;5525017;26;19997;-66
2024/04/14 02:06:31;;;;;;;0.00;0.00;;;;;;;-139.19;100.00;56970.53;5498002;26;20013;-65
2024/04/14 02:08:57;;;;;;;0.52;0.52;;;;;;;-139.19;100.00;56970.53;5507617;26;20009;-65
2024/04/14 02:11:22;;;;;;;1.27;0.93;;;;;;;-139.19;100.00;56970.53;5525482;26;20033;-66
2024/04/14 02:13:47;;;;;;;0.38;0.38;;;;;;;-139.19;100.00;56970.53;5512626;26;19993;-66
2024/04/14 02:16:13;;;;;;;0.40;0.20;;;;;;;-139.19;100.00;56970.53;5507164;26;20078;-66
2024/04/14 02:18:38;;;;;;;0.32;0.22;;;;;;;-139.19;100.00;56970.53;5506424;26;20008;-66
2024/04/14 02:21:04;;;;;;;1.80;1.48;;;;;;;-139.19;100.00;56970.53;5527991;26;20012;-66
2024/04/14 02:23:29;;;;;;;0.20;0.20;;;;;;;-139.19;100.00;56970.53;5528455;26;20025;-66
2024/04/14 02:25:58;;;;;;;0.63;0.60;;;;;;;-139.19;100.00;56970.53;5528084;26;20001;-65
2024/04/14 02:28:24;;;;;;;1.20;0.73;;;;;;;-139.19;100.00;56970.53;5492878;26;20010;-66
2024/04/14 02:30:50;;;;;;;0.65;0.60;;;;;;;-139.19;100.00;56970.53;5509777;26;20017;-66
2024/04/14 02:33:16;;;;;;;1.95;1.10;;;;;;;-139.19;100.00;56970.53;5522435;26;19997;-65
2024/04/14 02:35:58;;;;;;;0.28;0.28;;;;;;;-139.19;100.00;56970.53;5499117;26;20001;-66
2024/04/14 02:38:24;;;;;;;;;;;;;;;-139.19;100.00;56970.53;5528513;26;19998;-65
2024/04/14 02:41:04;;;;;;;0.38;0.38;;;;;;;-139.19;100.00;56970.53;5528383;26;19929;-66
2024/04/14 02:43:30;;;;;;;0.88;0.88;;;;;;;-139.19;100.00;56970.53;5526914;26;20088;-65
2024/04/14 02:45:56;;;;;;;0.63;0.63;;;;;;;-139.19;100.00;56970.53;5514590;26;20333;-66
2024/04/14 02:48:22;;;;;;;0.20;0.20;;;;;;;-139.19;100.00;56970.53;5528348;26;19994;-66
2024/04/14 02:50:48;;;;;;;0.70;0.70;;;;;;;-139.19;100.00;56970.53;5528474;26;20001;-66
2024/04/14 02:53:14;;;;;;;0.10;0.10;;;;;;;-139.19;100.00;56970.53;5529016;26;19993;-66
2024/04/14 02:55:39;;;;;;;0.30;0.30;;;;;;;-139.19;100.00;56970.53;5528994;26;19994;-66
2024/04/14 02:58:06;;;;;;;0.25;0.25;;;;;;;-139.19;100.00;56970.53;5529103;26;20027;-61
2024/04/14 03:00:32;;;;;;;0.17;0.17;;;;;;;-139.19;100.00;56970.53;5520842;26;20076;-61
2024/04/14 03:02:58;;;;;;;0.60;0.32;;;;;;;-139.19;100.00;56970.53;5492130;26;20010;-61
2024/04/14 03:05:23;;;;;;;0.77;0.30;;;;;;;-139.19;100.00;56970.53;5491931;26;20009;-61
2024/04/14 03:07:49;;;;;;;0.77;0.55;;;;;;;-139.19;100.00;56970.53;5508910;26;20034;-61
2024/04/14 03:10:14;;;;;;;0.85;0.30;;;;;;;-139.19;100.00;56970.53;5506519;26;20433;-61
2024/04/14 03:12:40;;;;;;;0.65;0.65;;;;;;;-139.19;100.00;56970.53;5492015;26;20041;-61
2024/04/14 03:15:06;;;;;;;0.52;0.52;;;;;;;-139.19;100.00;56970.53;5494077;26;20013;-61
2024/04/14 03:17:31;;;;;;;0.50;0.50;;;;;;;-139.19;100.00;56970.53;5490562;26;20013;-61
2024/04/14 03:19:57;;;;;;;0.25;0.25;;;;;;;-139.19;100.00;56970.53;5491996;26;20013;-62
2024/04/14 03:22:22;;;;;;;0.10;0.10;;;;;;;-139.19;100.00;56970.53;5491819;26;20074;-61
2024/04/14 03:24:48;;;;;;;0.22;0.22;;;;;;;-139.19;100.00;56970.53;5492327;26;20010;-61
2024/04/14 03:27:13;;;;;;;0.32;0.30;;;;;;;-139.19;100.00;56970.53;5496160;26;19998;-61
2024/04/14 03:29:39;;;;;;;0.10;0.10;;;;;;;-139.19;100.00;56970.53;5527792;26;20421;-61
2024/04/14 03:32:05;;;;;;;0.00;0.00;;;;;;;-139.19;100.00;56970.53;5527509;26;20001;-61
2024/04/14 03:34:31;;;;;;;0.10;0.10;;;;;;;-139.19;100.00;56970.53;5527130;26;20033;-61
2024/04/14 03:36:56;;;;;;;0.10;0.10;;;;;;;-139.19;100.00;56970.53;5528332;26;20489;-61
2024/04/14 03:39:21;;;;;;;0.10;0.10;;;;;;;-139.19;100.00;56970.53;5527239;26;20325;-62
2024/04/14 03:41:47;;;;;;;0.30;0.30;;;;;;;-139.19;100.00;56970.53;5496744;26;20029;-61
2024/04/14 03:44:12;;;;;;;0.50;0.50;;;;;;;-139.19;100.00;56970.53;5527346;26;20012;-61
2024/04/14 03:46:37;;;;;;;0.10;0.10;;;;;;;-139.19;100.00;56970.53;5526703;26;20013;-61
2024/04/14 03:49:03;;;;;;;0.17;0.17;;;;;;;-139.19;100.00;56970.53;5527264;26;20023;-61
2024/04/14 03:51:28;;;;;;;0.35;0.35;;;;;;;-139.19;100.00;56970.53;5527633;26;19997;-61
2024/04/14 03:53:54;;;;;;;0.20;0.20;;;;;;;-139.19;100.00;56970.53;5525718;26;20330;-61
2024/04/14 03:56:19;;;;;;;0.10;0.10;;;;;;;-139.19;100.00;56970.53;5522907;26;20001;-61
2024/04/14 03:58:44;;;;;;;0.00;0.00;;;;;;;-139.19;100.00;56970.53;5491341;26;19998;-61
2024/04/14 04:01:09;;;;;;;0.20;0.20;;;;;;;-139.19;100.00;56970.53;5491308;26;20010;-62
2024/04/14 04:03:35;;;;;;;0.85;0.77;;;;;;;-139.19;100.00;56970.53;5491189;26;19998;-61
2024/04/14 04:06:01;;;;;;;0.43;0.43;;;;;;;-139.19;100.00;56970.53;5491531;26;20002;-61
2024/04/14 04:08:26;;;;;;;0.10;0.10;;;;;;;-139.19;100.00;56970.53;5523525;26;20097;-61
2024/04/14 04:11:03;;;;;;;0.05;0.05;;;;;;;-139.19;100.00;56970.53;5507011;26;20326;-61
2024/04/14 04:13:32;;;;;;;0.28;0.28;;;;;;;-139.19;100.00;56970.53;5491154;26;20318;-61
2024/04/14 04:16:03;;;;;;;0.30;0.30;;;;;;;-139.19;100.00;56970.53;5513792;26;20065;-61
2024/04/14 04:18:28;;;;;;;0.20;0.20;;;;;;;-139.19;100.00;56970.53;5526872;26;20009;-61
2024/04/14 04:20:55;;;;;;;0.20;0.20;;;;;;;-139.19;100.00;56970.53;5526809;26;20016;-61
2024/04/14 04:23:21;;;;;;;0.90;0.68;;;;;;;-139.19;100.00;56970.53;5526916;26;20433;-61
2024/04/14 04:25:46;;;;;;;0.52;0.52;;;;;;;-139.19;100.00;56970.53;5525068;26;20046;-61
2024/04/14 04:28:11;;;;;;;0.10;0.10;;;;;;;-139.19;100.00;56970.53;5497558;26;19993;-61
2024/04/14 04:30:37;;;;;;;0.10;0.10;;;;;;;-139.19;100.00;56970.53;5498897;26;20066;-61
2024/04/14 04:33:02;;;;;;;2.05;0.85;;;;;;;-139.19;100.00;56970.53;5490827;26;20082;-61
2024/04/14 04:35:28;;;;;;;0.17;0.17;;;;;;;-139.19;100.00;56970.53;5490709;26;20017;-61
2024/04/14 04:37:53;;;;;;;0.25;0.15;;;;;;;-139.19;100.00;56970.53;5490707;26;20002;-61
2024/04/14 04:40:18;;;;;;;0.17;0.17;;;;;;;-139.19;100.00;56970.53;5490710;26;20005;-61
2024/04/14 04:42:44;;;;;;;0.00;0.00;;;;;;;-139.19;100.00;56970.53;5512219;26;20394;-61
2024/04/14 04:45:10;;;;;;;0.28;0.28;;;;;;;-139.19;100.00;56970.53;5499009;26;20315;-61
2024/04/14 04:47:35;;;;;;;0.05;0.05;;;;;;;-139.19;100.00;56970.53;5507107;26;20005;-61
2024/04/14 04:50:01;;;;;;;0.17;0.17;;;;;;;-139.19;100.00;56970.53;5524810;26;20367;-61
2024/04/14 04:52:26;;;;;;;0.90;0.52;;;;;;;-139.19;100.00;56970.53;5525367;26;20069;-61
2024/04/14 04:54:51;;;;;;;0.20;0.20;;;;;;;-139.19;100.00;56970.53;5525272;26;19997;-61
2024/04/14 04:57:17;;;;;;;1.00;0.30;;;;;;;-139.19;100.00;56970.53;5492304;26;20009;-62
2024/04/14 04:59:42;;;;;;;0.08;0.08;;;;;;;-139.19;100.00;56970.53;5523603;26;19997;-61
2024/04/14 05:02:07;;;;;;;0.22;0.22;;;;;;;-139.19;100.00;56970.53;5524508;26;19994;-61
2024/04/14 05:04:33;;;;;;;0.20;0.20;;;;;;;-139.19;100.00;56970.53;5524473;26;20008;-61
2024/04/14 05:06:58;;;;;;;0.25;0.25;;;;;;;-139.19;100.00;56970.53;5495096;26;20062;-61
2024/04/14 05:09:24;;;;;;;0.20;0.20;;;;;;;-139.19;100.00;56970.53;5488246;26;20038;-61
2024/04/14 05:11:49;;;;;;;0.68;0.63;;;;;;;-139.19;100.00;56970.53;5518794;26;20363;-62
2024/04/14 05:14:15;;;;;;;0.17;0.17;;;;;;;-139.19;100.00;56970.53;5488159;26;20073;-61
2024/04/14 05:16:40;;;;;;;0.03;0.03;;;;;;;-139.19;100.00;56970.53;5488128;26;20333;-61
2024/04/14 05:19:05;;;;;;;0.00;0.00;;;;;;;-139.19;100.00;56970.53;5488246;26;20064;-65
2024/04/14 05:21:31;;;;;;;0.15;0.15;;;;;;;-139.19;100.00;56970.53;5488160;26;20026;-65
2024/04/14 05:23:56;;;;;;;0.20;0.20;;;;;;;-139.19;100.00;56970.53;5504024;26;20434;-65
2024/04/14 05:26:21;;;;;;;0.20;0.20;;;;;;;-139.19;100.00;56970.53;5516688;26;20039;-65
2024/04/14 05:28:47;;;;;;;0.20;0.20;;;;;;;-139.19;100.00;56970.53;5523866;26;20016;-65
2024/04/14 05:31:12;;;;;;;0.28;0.28;;;;;;;-139.19;100.00;56970.53;5510964;26;20029;-65
2024/04/14 05:33:38;;;;;;;0.70;0.60;;;;;;;-139.19;100.00;56970.53;5495501;26;20329;-65
2024/04/14 05:36:04;;;;;;;0.35;0.35;;;;;;;-139.19;100.00;56970.53;5503868;26;20006;-65
2024/04/14 05:38:29;;;;;;;0.40;0.40;;;;;;;-139.19;100.00;56970.53;5491278;26;20009;-65
2024/04/14 05:40:54;;;;;;;0.28;0.28;;;;;;;-139.19;100.00;56970.53;5499405;26;20001;-65
2024/04/14 05:43:20;;;;;;;0.30;0.30;;;;;;;-139.19;100.00;56970.53;5528437;26;20455;-65
2024/04/14 05:45:45;;;;;;;0.10;0.10;;;;;;;-139.19;100.00;56970.53;5511892;26;20009;-65
2024/04/14 05:48:11;;;;;;;0.17;0.17;;;;;;;-139.19;100.00;56970.53;5493544;26;19998;-65
2024/04/14 05:50:36;;;;;;;0.43;0.43;;;;;;;-139.19;100.00;56970.53;5510958;26;20290;-65
2024/04/14 05:53:02;;;;;;;4.32;0.80;;;;;;;-139.19;100.00;56970.53;5529083;26;20322;-65
2024/04/14 05:55:27;;;;;;;0.63;0.60;;;;;;;-139.19;100.00;56970.53;5518083;26;19998;-65
2024/04/14 05:57:52;;;;;;;0.43;0.43;;;;;;;-139.19;100.00;56970.53;5492912;26;20418;-65
2024/04/14 06:00:17;;;;;;;0.38;0.22;;;;;;;-139.19;100.00;56970.53;5492932;26;20006;-65
2024/04/14 06:02:43;;;;;;;0.40;0.40;;;;;;;-139.19;100.00;56970.53;5492991;26;20002;-66
2024/04/14 06:05:08;;;;;;;0.10;0.10;;;;;;;-139.19;100.00;56970.53;5527061;26;20001;-65
2024/04/14 06:07:33;;;;;;;0.20;0.20;;;;;;;-139.19;100.00;56970.53;5529471;26;20004;-65
2024/04/14 06:10:00;;;;;;;3.30;0.60;;;;;;;-139.19;100.00;56970.53;5513719;26;20034;-65
2024/04/14 06:12:25;;;;;;;0.43;0.30;;;;;;;-139.19;100.00;56970.53;5523478;26;20494;-65
2024/04/14 06:14:50;;;;;;;0.10;0.10;;;;;;;-139.19;100.00;56970.53;5492849;26;20006;-65
2024/04/14 06:17:15;;;;;;;1.17;1.05;;;;;;;-139.19;100.00;56970.53;5509135;26;20001;-65
2024/04/14 06:19:41;;;;;;;0.10;0.10;;;;;;;-139.19;100.00;56970.53;5528583;26;20093;-65
2024/04/14 06:22:06;;;;;;;0.20;0.20;;;;;;;-139.19;100.00;56970.53;5528653;26;20002;-65
2024/04/14 06:24:31;;;;;;;0.10;0.10;;;;;;;-139.19;100.00;56970.53;5525297;26;20008;-65
2024/04/14 06:26:57;;;;;;;0.10;0.10;;;;;;;-139.19;100.00;56970.53;5528868;26;20440;-65
2024/04/14 06:29:22;;;;;;;0.10;0.10;;;;;;;-139.19;100.00;56970.53;5507497;26;20013;-65
2024/04/14 06:31:47;;;;;;;0.80;0.40;;;;;;;-139.19;100.00;56970.53;5492490;26;20012;-65
2024/04/14 06:34:13;;;;;;;0.15;0.15;;;;;;;-139.19;100.00;56970.53;5492407;26;19998;-65
2024/04/14 06:36:38;;;;;;;0.10;0.10;;;;;;;-139.19;100.00;56970.53;5492498;26;20013;-65
2024/04/14 06:39:03;;;;;;;0.10;0.10;;;;;;;-139.19;100.00;56970.53;5508068;26;19998;-66
2024/04/14 06:41:29;;;;;;;0.10;0.10;;;;;;;-139.19;100.00;56970.53;5509157;26;20002;-65
2024/04/14 06:43:55;;;;;;;2.13;0.32;;;;;;;-139.19;100.00;56970.53;5492303;26;19999;-65
2024/04/14 06:46:20;;;;;;;0.30;0.30;;;;;;;-139.19;100.00;56970.53;5492182;26;20067;-66
2024/04/14 06:48:45;;;;;;;1.85;0.70;;;;;;;-139.19;100.00;56970.53;5492186;26;20438;-66
2024/04/14 06:51:11;;;;;;;0.73;0.68;;;;;;;-139.19;100.00;56970.53;5492239;26;19998;-66
2024/04/14 06:53:36;;;;;;;0.40;0.40;;;;;;;-139.19;100.00;56970.53;5472329;26;20017;-66
2024/04/14 06:56:03;;;;;;;0.13;0.13;;;;;;;-139.19;100.00;56970.53;5492804;26;20005;-78
2024/04/14 06:58:29;;;;;;;0.47;0.32;;;;;;;-139.19;100.00;56970.53;5502466;26;20061;-79
2024/04/14 07:00:54;;;;;;;0.63;0.63;;;;;;;-139.19;100.00;56970.53;5520424;26;20026;-65
2024/04/14 07:03:19;;;;;;;0.63;0.52;;;;;;;-139.19;100.00;56970.53;5496524;26;19995;-66
2024/04/14 07:05:45;;;;;;;0.95;0.25;;;;;;;-139.19;100.00;56970.53;5491869;26;20084;-66
2024/04/14 07:08:10;;;;;;;0.20;0.20;;;;;;;-139.19;100.00;56970.53;5491915;26;19994;-66
2024/04/14 07:10:36;;;;;;;0.52;0.52;;;;;;;-139.19;100.00;56970.53;5491817;26;19990;-65
2024/04/14 07:13:01;;;;;;;0.40;0.35;;;;;;;-139.19;100.00;56970.53;5491835;26;20008;-66
2024/04/14 07:15:26;;;;;;;0.30;0.30;;;;;;;-139.19;100.00;56970.53;5491822;26;20423;-65
2024/04/14 07:17:52;;;;;;;0.68;0.68;;;;;;;-139.19;100.00;56970.53;5459668;26;19998;-65
2024/04/14 07:20:17;;;;;;;0.43;0.43;;;;;;;-139.19;100.00;56970.53;5491798;26;19998;-65
2024/04/14 07:22:45;;;;;;;0.17;0.17;;;;;;;-139.19;100.00;56970.53;5491773;26;19995;-66
2024/04/14 07:25:11;;;;;;;0.20;0.20;;;;;;;-139.19;100.00;56970.53;5491785;26;20021;-65
2024/04/14 07:27:36;;;;;;;1.55;0.77;;;;;;;-139.19;100.00;56970.53;5491676;26;20001;-65
2024/04/14 07:30:01;;;;;;;2.20;0.38;;;;;;;-139.19;100.00;56970.53;5491443;26;20066;-65
2024/04/14 07:32:27;;;;;;;0.45;0.45;;;;;;;-139.19;100.00;56970.53;5491629;26;20009;-65
2024/04/14 07:34:52;;;;;;;0.32;0.30;;;;;;;-139.19;100.00;56970.53;5491700;26;20006;-65
2024/04/14 07:37:17;;;;;;;0.25;0.22;;;;;;;-139.19;100.00;56970.53;5491568;26;20002;-66
2024/04/14 07:39:43;;;;;;;1.25;0.82;;;;;;;-139.19;100.00;56970.53;5491650;26;20012;-65
2024/04/14 07:42:09;;;;;;;0.40;0.40;;;;;;;-139.19;100.00;56970.53;5491508;26;20424;-65
2024/04/14 07:44:35;;;;;;;0.22;0.22;;;;;;;-139.19;100.00;56970.53;5491487;26;20502;-66
2024/04/14 07:47:00;;;;;;;0.30;0.30;;;;;;;-139.19;100.00;56970.53;5491357;26;19990;-65
2024/04/14 07:49:25;;;;;;;0.20;0.20;;;;;;;-139.19;100.00;56970.53;5491250;26;20006;-66
2024/04/14 07:51:51;;;;;;;1.70;0.80;;;;;;;-139.19;100.00;56970.53;5491293;26;20002;-65
2024/04/14 07:54:16;;;;;;;0.32;0.32;;;;;;;-139.19;100.00;56970.53;5491324;26;19994;-65
2024/04/14 07:56:41;;;;;;;0.95;0.77;;;;;;;-139.19;100.00;56970.53;5491246;26;19994;-66
2024/04/14 07:59:07;;;;;;;0.80;0.73;;;;;;;-139.19;100.00;56970.53;5491011;26;20005;-66
2024/04/14 08:01:33;;;;;;;0.93;0.55;;;;;;;-139.19;100.00;56970.53;5491180;26;19990;-66
2024/04/14 08:03:59;;;;;;;0.40;0.40;;;;;;;-139.19;100.00;56970.53;5490316;26;20532;-65
2024/04/14 08:06:24;;;;;;;5.30;1.05;;;;;;;-139.19;100.00;56970.53;5491051;26;19990;-65
2024/04/14 08:08:49;;;;;;;0.30;0.30;;;;;;;-139.19;100.00;56970.53;5491102;26;20074;-66
2024/04/14 08:11:15;;;;;;;0.43;0.40;;;;;;;-139.19;100.00;56970.53;5490976;26;20005;-65
2024/04/14 08:13:40;;;;;;;0.47;0.47;;;;;;;-139.19;100.00;56970.53;5491016;26;19995;-65
2024/04/14 08:16:06;;;;;;;0.93;0.50;;;;;;;-139.19;100.00;56970.53;5490914;26;19994;-66
2024/04/14 08:18:31;;;;;;;1.17;0.47;;;;;;;-139.19;100.00;56970.53;5490969;26;20001;-66
2024/04/14 08:20:58;;;;;;;1.02;0.50;;;;;;;-139.19;100.00;56970.53;5490889;26;20446;-66
2024/04/14 08:23:24;;;;;;;0.70;0.70;;;;;;;-139.19;100.00;56970.53;5490877;26;20002;-65
2024/04/14 08:25:49;;;;;;;0.50;0.40;;;;;;;-139.19;100.00;56970.53;5490858;26;20001;-66
2024/04/14 08:28:14;;;;;;;0.20;0.20;;;;;;;-139.19;100.00;56970.53;5490817;26;20020;-65
2024/04/14 08:30:40;;;;;;;0.93;0.75;;;;;;;-139.19;100.00;56970.53;5491031;26;20001;-66
2024/04/14 08:33:05;;;;;;;0.73;0.40;;;;;;;-139.19;100.00;56970.53;5458597;26;20001;-66
2024/04/14 08:35:30;;;;;;;0.82;0.77;;;;;;;-139.19;100.00;56970.53;5490652;26;19994;-66
2024/04/14 08:37:56;;;;;;;1.35;0.50;;;;;;;-139.19;100.00;56970.53;5490721;26;19998;-65
2024/04/14 08:40:21;;;;;;;0.70;0.38;;;;;;;-139.19;100.00;56970.53;5490599;26;20005;-65
2024/04/14 08:42:46;;;;;;;1.27;0.82;;;;;;;-139.19;100.00;56970.53;5490719;26;19994;-66
2024/04/14 08:45:14;;;;;;;0.25;0.25;;;;;;;-139.19;100.00;56970.53;5490550;26;20001;-65
2024/04/14 08:47:41;;;;;;;0.20;0.20;;;;;;;-139.19;100.00;56970.53;5490514;26;19994;-66
2024/04/14 08:50:08;;;;;;;0.22;0.22;;;;;;;-139.19;100.00;56970.53;5490333;26;20035;-65
2024/04/14 08:52:37;;;;;;;0.30;0.30;;;;;;;-139.19;100.00;56970.53;5490447;26;20004;-66
2024/04/14 08:55:04;;;;;;;1.40;0.75;;;;;;;-139.19;100.00;56970.53;5490399;26;19991;-65
2024/04/14 08:57:29;;;;;;;0.22;0.22;;;;;;;-139.19;100.00;56970.53;5490195;26;20026;-65
2024/04/14 08:59:58;;;;;;;1.55;0.55;;;;;;;-139.19;100.00;56970.53;5490389;26;20010;-65
2024/04/14 09:02:24;;;;;;;0.35;0.35;;;;;;;-139.19;100.00;56970.53;5490267;26;20498;-65
2024/04/14 09:04:50;;;;;;;2.00;0.75;;;;;;;-139.19;100.00;56970.53;5490227;26;19997;-66
2024/04/14 09:07:15;;;;;;;0.30;0.30;;;;;;;-139.19;100.00;56970.53;5490208;26;20066;-66
2024/04/14 09:09:42;;;;;;;1.35;0.95;;;;;;;-139.19;100.00;56970.53;5490092;26;20013;-66
2024/04/14 09:12:11;;;;;;;0.75;0.43;;;;;;;-139.19;100.00;56970.53;5490155;26;20018;-65
2024/04/14 09:14:36;;;;;;;3.03;0.30;;;;;;;-139.19;100.00;56970.53;5488910;26;19994;-66
2024/04/14 09:17:02;;;;;;;0.25;0.25;;;;;;;-139.19;100.00;56970.53;5489740;26;20004;-66
2024/04/14 09:19:27;;;;;;;0.40;0.40;;;;;;;-139.19;100.00;56970.53;5490021;26;20005;-65
2024/04/14 09:21:53;;;;;;;0.28;0.28;;;;;;;-139.19;100.00;56970.53;5490017;26;20039;-65
2024/04/14 09:24:18;;;;;;;0.30;0.30;;;;;;;-139.19;100.00;56970.53;5489974;26;20026;-66
2024/04/14 09:26:44;;;;;;;0.43;0.43;;;;;;;-139.19;100.00;56970.53;5489863;26;19990;-66
2024/04/14 09:29:10;;;;;;;1.25;1.05;;;;;;;-139.19;100.00;56970.53;5489759;26;20330;-66
2024/04/14 09:31:35;;;;;;;1.10;0.35;;;;;;;-139.19;100.00;56970.53;5489806;26;20030;-65
2024/04/14 09:34:04;;;;;;;0.63;0.50;;;;;;;-139.19;100.00;56970.53;5489762;26;19995;-65
2024/04/14 09:36:30;;;;;;;1.00;0.60;;;;;;;-139.19;100.00;56970.53;5489713;26;19994;-66
2024/04/14 09:38:56;;;;;;;0.47;0.47;;;;;;;-139.19;100.00;56970.53;5489724;26;20006;-65
2024/04/14 09:41:22;;;;;;;0.70;0.70;;;;;;;-139.19;100.00;56970.53;5489613;26;19998;-65
2024/04/14 09:43:51;;;;;;;2.15;0.85;;;;;;;-139.19;100.00;56970.53;5489597;26;19998;-65
2024/04/14 09:46:21;;;;;;;1.25;0.28;;;;;;;-139.19;100.00;56970.53;5489556;26;20430;-65
2024/04/14 09:48:47;;;;;;;0.90;0.52;;;;;;;-139.19;100.00;56970.53;5489664;26;20026;-66
2024/04/14 09:51:16;;;;;;;5.53;0.50;;;;;;;-139.19;100.00;56970.53;5489376;26;19994;-66
2024/04/14 09:53:42;;;;;;;0.68;0.40;;;;;;;-139.19;100.00;56970.53;5489437;26;20012;-66
2024/04/14 09:56:07;;;;;;;0.40;0.40;;;;;;;-139.19;100.00;56970.53;5489427;26;20441;-66
2024/04/14 09:58:33;;;;;;;0.98;0.70;;;;;;;-139.19;100.00;56970.53;5489351;26;19998;-66
2024/04/14 10:01:03;;;;;;;0.68;0.52;;;;;;;-139.19;100.00;56970.53;5489642;26;20329;-66
2024/04/14 10:03:31;;;;;;;0.20;0.20;;;;;;;-139.19;100.00;56970.53;5489520;26;19994;-65
2024/04/14 10:05:58;;;;;;;0.32;0.32;;;;;;;-139.19;100.00;56970.53;5489479;26;20484;-65
2024/04/14 10:08:24;;;;;;;1.13;0.47;;;;;;;-139.19;100.00;56970.53;5489552;26;19994;-62
2024/04/14 10:10:53;;;;;;;0.75;0.57;;;;;;;-139.19;100.00;56970.53;5489321;26;20449;-62
2024/04/14 10:13:18;;;;;;;0.52;0.52;;;;;;;-139.19;100.00;56970.53;5489467;26;20026;-62
2024/04/14 10:15:57;;;;;;;0.28;0.28;;;;;;;-139.19;100.00;56970.53;5489247;26;19994;-62
2024/04/14 10:18:39;;;;;;;0.80;0.57;;;;;;;-139.19;100.00;56970.53;5489190;26;19994;-62
2024/04/14 10:21:05;;;;;;;0.55;0.50;;;;;;;-139.19;100.00;56970.53;5488984;26;20447;-62
2024/04/14 10:23:30;;;;;;;0.60;0.40;;;;;;;-139.19;100.00;56970.53;5488859;26;19997;-62
2024/04/14 10:25:57;;;;;;;0.85;0.68;;;;;;;-139.19;100.00;56970.53;5489009;26;19990;-62
2024/04/14 10:28:22;;;;;;;0.30;0.30;;;;;;;-139.19;100.00;56970.53;5492499;26;20047;-62
2024/04/14 10:30:59;;;;;;;1.05;0.52;;;;;;;-139.19;100.00;56970.53;5492467;26;19994;-62
2024/04/14 10:33:25;;;;;;;0.30;0.30;;;;;;;-139.19;100.00;56970.53;5492590;26;20461;-62
2024/04/14 10:36:04;;;;;;;0.95;0.50;;;;;;;-139.19;100.00;56970.53;5492554;26;20009;-62
2024/04/14 10:38:34;;;;;;;0.95;0.60;;;;;;;-139.19;100.00;56970.53;5492383;26;20450;-62
2024/04/14 10:41:00;;;;;;;0.38;0.32;;;;;;;-139.19;100.00;56970.53;5492347;26;20005;-62
2024/04/14 10:43:26;;;;;;;1.85;0.93;;;;;;;-139.19;100.00;56970.53;5492358;26;20034;-62
2024/04/14 10:45:54;;;;;;;0.77;0.63;;;;;;;-139.19;100.00;56970.53;5492315;26;19994;-63
2024/04/14 10:48:20;;;;;;;0.88;0.77;;;;;;;-139.19;100.00;56970.53;5492288;26;20070;-62
2024/04/14 10:50:46;;;;;;;0.93;0.75;;;;;;;-139.19;100.00;56970.53;5492154;26;20446;-62
2024/04/14 10:53:11;;;;;;;0.73;0.45;;;;;;;-139.19;100.00;56970.53;5492178;26;20328;-62
2024/04/14 10:55:37;;;;;;;0.98;0.63;;;;;;;-139.19;100.00;56970.53;5492198;26;19998;-62
2024/04/14 10:58:02;;;;;;;0.50;0.50;;;;;;;-139.19;100.00;56970.53;5492136;26;19994;-62
2024/04/14 11:00:28;;;;;;;0.38;0.38;;;;;;;-139.19;100.00;56970.53;5492412;26;20063;-62
2024/04/14 11:02:53;;;;;;;0.50;0.43;;;;;;;-139.19;100.00;56970.53;5492455;26;20045;-62